createdAt,value
2023-01-05T00:01:36.439Z,2.85
2023-01-05T00:04:06.861Z,3.05
2023-01-05T00:06:35.222Z,2.92
2023-01-05T00:09:03.640Z,2.90
2023-01-05T00:11:49.515Z,2.90
2023-01-05T00:14:36.963Z,2.60
2023-01-05T00:17:23.051Z,2.65
2023-01-05T00:20:10.608Z,2.55
2023-01-05T00:22:42.232Z,2.50
2023-01-05T00:25:12.959Z,2.72
2023-01-05T00:27:42.004Z,2.83
2023-01-05T00:30:10.962Z,3.58
2023-01-05T00:32:39.360Z,2.63
2023-01-05T00:35:10.181Z,2.85
2023-01-05T00:37:38.958Z,2.67
2023-01-05T00:40:08.459Z,2.17
2023-01-05T00:42:36.772Z,3.40
2023-01-05T00:45:06.007Z,2.33
2023-01-05T00:47:34.346Z,2.20
2023-01-05T00:50:02.711Z,2.50
2023-01-05T00:52:32.364Z,2.72
2023-01-05T00:55:00.757Z,2.17
2023-01-05T00:57:29.116Z,2.33
2023-01-05T00:59:57.431Z,2.95
2023-01-05T01:02:25.879Z,2.55
2023-01-05T01:04:54.273Z,2.38
2023-01-05T01:07:22.596Z,2.33
2023-01-05T01:09:52.251Z,2.63
2023-01-05T01:12:20.578Z,2.20
2023-01-05T01:14:49.690Z,2.40
2023-01-05T01:17:22.469Z,3.30
2023-01-05T01:19:50.876Z,2.97
2023-01-05T01:22:19.238Z,2.75
2023-01-05T01:24:47.606Z,2.97
2023-01-05T01:27:17.326Z,2.50
2023-01-05T01:29:45.630Z,2.35
2023-01-05T01:32:13.979Z,2.60
2023-01-05T01:37:09.897Z,2.58
2023-01-05T01:39:38.195Z,2.20
2023-01-05T01:42:07.212Z,2.50
2023-01-05T01:44:59.613Z,2.80
2023-01-05T01:47:34.203Z,2.55
2023-01-05T01:50:03.814Z,2.50
2023-01-05T01:52:32.309Z,3.22
2023-01-05T01:55:00.629Z,2.67
2023-01-05T01:57:28.943Z,3.00
2023-01-05T01:59:58.849Z,2.80
2023-01-05T02:02:27.293Z,2.42
2023-01-05T02:04:56.261Z,2.13
2023-01-05T02:07:24.803Z,2.50
2023-01-05T02:09:56.649Z,2.60
2023-01-05T02:12:32.091Z,2.17
2023-01-05T02:15:09.776Z,2.45
2023-01-05T02:17:43.860Z,2.13
2023-01-05T02:20:35.791Z,2.53
2023-01-05T02:23:33.066Z,2.88
2023-01-05T02:26:37.071Z,2.10
2023-01-05T02:29:37.708Z,2.38
2023-01-05T02:32:10.185Z,2.30
2023-01-05T02:34:41.747Z,2.30
2023-01-05T02:37:11.353Z,1.88
2023-01-05T02:39:42.714Z,2.58
2023-01-05T02:42:13.149Z,2.38
2023-01-05T02:44:41.487Z,2.17
2023-01-05T02:47:38.649Z,2.30
2023-01-05T02:50:10.002Z,3.20
2023-01-05T02:52:40.578Z,2.33
2023-01-05T02:55:10.674Z,2.53
2023-01-05T02:57:53.079Z,2.13
2023-01-05T03:00:22.902Z,2.13
2023-01-05T03:02:54.409Z,2.20
2023-01-05T03:05:25.171Z,2.30
2023-01-05T03:07:54.511Z,2.47
2023-01-05T03:10:40.392Z,2.20
2023-01-05T03:13:26.348Z,2.15
2023-01-05T03:16:02.042Z,2.78
2023-01-05T03:18:31.921Z,1.92
2023-01-05T03:20:59.307Z,2.30
2023-01-05T03:23:45.274Z,2.50
2023-01-05T03:26:31.217Z,2.30
2023-01-05T03:29:17.867Z,2.63
2023-01-05T03:32:04.307Z,2.17
2023-01-05T03:34:55.200Z,2.40
2023-01-05T03:37:25.369Z,2.10
2023-01-05T03:39:53.734Z,2.00
2023-01-05T03:42:22.832Z,2.08
2023-01-05T03:44:51.186Z,2.30
2023-01-05T03:47:19.494Z,1.83
2023-01-05T03:49:49.872Z,1.92
2023-01-05T03:52:18.236Z,1.65
2023-01-05T03:54:46.578Z,2.47
2023-01-05T03:57:14.881Z,1.63
2023-01-05T03:59:43.184Z,1.80
2023-01-05T04:02:11.627Z,2.40
2023-01-05T04:04:40.054Z,2.30
2023-01-05T04:07:09.795Z,2.35
2023-01-05T04:09:38.150Z,1.75
2023-01-05T04:12:06.674Z,2.15
2023-01-05T04:14:35.003Z,1.75
2023-01-05T04:17:03.313Z,1.75
2023-01-05T04:19:31.599Z,2.45
2023-01-05T04:22:01.215Z,2.03
2023-01-05T04:24:30.892Z,1.92
2023-01-05T04:26:59.214Z,1.65
2023-01-05T04:29:27.509Z,2.30
2023-01-05T04:31:55.850Z,1.95
2023-01-05T04:34:24.203Z,1.95
2023-01-05T04:36:58.270Z,1.60
2023-01-05T04:39:26.655Z,2.08
2023-01-05T04:41:56.323Z,1.77
2023-01-05T04:44:24.676Z,1.63
2023-01-05T04:46:55.507Z,1.98
2023-01-05T04:49:23.914Z,2.15
2023-01-05T04:51:52.302Z,2.00
2023-01-05T04:54:20.637Z,1.83
2023-01-05T04:56:48.982Z,1.33
2023-01-05T04:59:21.105Z,1.67
2023-01-05T05:01:49.889Z,1.52
2023-01-05T05:04:21.358Z,2.20
2023-01-05T05:06:50.051Z,1.77
2023-01-05T05:09:25.749Z,1.75
2023-01-05T05:12:08.723Z,1.70
2023-01-05T05:14:38.375Z,1.42
2023-01-05T05:17:06.779Z,2.40
2023-01-05T05:19:35.125Z,1.70
2023-01-05T05:22:03.908Z,1.55
2023-01-05T05:24:32.257Z,1.75
2023-01-05T05:27:09.546Z,1.98
2023-01-05T05:29:39.248Z,1.88
2023-01-05T05:32:07.555Z,1.90
2023-01-05T05:34:35.855Z,1.75
2023-01-05T05:37:04.192Z,1.52
2023-01-05T05:39:32.562Z,1.48
2023-01-05T05:42:00.917Z,1.73
2023-01-05T05:44:29.280Z,1.88
2023-01-05T05:47:00.035Z,1.70
2023-01-05T05:49:28.476Z,1.67
2023-01-05T05:51:56.837Z,2.28
2023-01-05T05:54:25.144Z,1.35
2023-01-05T05:56:53.447Z,1.50
2023-01-05T05:59:23.578Z,2.00
2023-01-05T06:01:52.436Z,2.38
2023-01-05T06:04:22.380Z,1.70
2023-01-05T06:06:50.752Z,1.73
2023-01-05T06:09:19.311Z,1.50
2023-01-05T06:11:47.751Z,1.48
2023-01-05T06:14:16.327Z,1.70
2023-01-05T06:16:45.951Z,1.38
2023-01-05T06:19:14.495Z,1.70
2023-01-05T06:21:44.189Z,1.65
2023-01-05T06:24:12.627Z,1.50
2023-01-05T06:26:47.032Z,1.80
2023-01-05T06:29:15.417Z,1.83
2023-01-05T06:31:43.833Z,2.03
2023-01-05T06:34:14.564Z,1.58
2023-01-05T06:36:44.248Z,1.80
2023-01-05T06:39:12.583Z,2.30
2023-01-05T06:41:40.998Z,1.85
2023-01-05T06:44:09.571Z,1.50
2023-01-05T06:46:37.946Z,1.70
2023-01-05T06:49:06.299Z,1.65
2023-01-05T06:51:34.647Z,1.80
2023-01-05T06:54:05.456Z,1.35
2023-01-05T06:56:33.877Z,1.77
2023-01-05T06:59:05.473Z,1.80
2023-01-05T07:01:33.942Z,1.42
2023-01-05T07:04:02.429Z,2.15
2023-01-05T07:06:30.815Z,1.30
2023-01-05T07:08:59.171Z,1.33
2023-01-05T07:11:28.895Z,1.67
2023-01-05T07:13:58.455Z,1.65
2023-01-05T07:16:29.515Z,1.58
2023-01-05T07:18:57.862Z,1.52
2023-01-05T07:21:28.605Z,1.42
2023-01-05T07:23:56.908Z,1.63
2023-01-05T07:26:25.253Z,1.90
2023-01-05T07:28:55.141Z,1.35
2023-01-05T07:31:24.738Z,1.70
2023-01-05T07:33:53.038Z,1.98
2023-01-05T07:36:21.322Z,1.42
2023-01-05T07:38:49.671Z,1.60
2023-01-05T07:41:21.198Z,1.63
2023-01-05T07:43:52.191Z,1.40
2023-01-05T07:46:22.002Z,1.50
2023-01-05T07:48:50.352Z,1.80
2023-01-05T07:51:19.088Z,1.33
2023-01-05T07:53:47.471Z,1.45
2023-01-05T07:56:15.753Z,1.52
2023-01-05T07:58:44.163Z,1.50
2023-01-05T08:01:13.699Z,1.30
2023-01-05T08:03:43.475Z,2.92
2023-01-05T08:06:12.707Z,2.75
2023-01-05T08:08:41.013Z,2.55
2023-01-05T08:11:10.511Z,2.72
2023-01-05T08:13:56.479Z,3.50
2023-01-05T08:16:24.866Z,2.50
2023-01-05T08:18:54.844Z,2.78
2023-01-05T08:21:23.151Z,2.65
2023-01-05T08:23:53.193Z,2.85
2023-01-05T08:26:22.386Z,2.40
2023-01-05T08:28:50.822Z,3.03
2023-01-05T08:31:21.081Z,2.95
2023-01-05T08:33:52.286Z,2.83
2023-01-05T08:36:22.094Z,3.22
2023-01-05T08:38:52.239Z,2.90
2023-01-05T08:41:22.906Z,2.28
2023-01-05T08:43:51.614Z,2.50
2023-01-05T08:46:20.149Z,3.00
2023-01-05T08:48:51.422Z,2.80
2023-01-05T08:51:21.137Z,3.00
2023-01-05T08:53:52.617Z,3.22
2023-01-05T08:56:21.223Z,3.10
2023-01-05T08:58:52.763Z,3.33
2023-01-05T09:01:23.541Z,3.00
2023-01-05T09:03:57.987Z,3.22
2023-01-05T09:06:27.659Z,3.78
2023-01-05T09:09:04.346Z,3.33
2023-01-05T09:11:35.308Z,2.35
2023-01-05T09:14:03.703Z,3.33
2023-01-05T09:19:21.216Z,3.03
2023-01-05T09:21:52.080Z,4.20
2023-01-05T09:24:20.390Z,4.30
2023-01-05T09:26:48.870Z,4.65
2023-01-05T09:29:17.206Z,4.28
2023-01-05T09:31:48.280Z,5.05
2023-01-05T09:34:16.835Z,4.50
2023-01-05T09:36:45.178Z,5.05
2023-01-05T09:39:15.010Z,4.32
2023-01-05T09:41:44.865Z,4.57
2023-01-05T09:44:15.636Z,4.30
2023-01-05T09:46:47.643Z,4.47
2023-01-05T09:49:16.911Z,5.50
2023-01-05T09:51:45.323Z,4.55
2023-01-05T09:54:17.136Z,4.45
2023-01-05T09:59:35.947Z,4.65
2023-01-05T10:02:12.224Z,4.20
2023-01-05T10:04:40.663Z,4.20
2023-01-05T10:07:20.471Z,3.53
2023-01-05T10:09:50.248Z,3.55
2023-01-05T10:12:38.336Z,4.22
2023-01-05T10:15:08.240Z,3.47
2023-01-05T10:17:42.508Z,4.22
2023-01-05T10:20:21.166Z,3.85
2023-01-05T10:22:55.325Z,4.30
2023-01-05T10:25:27.554Z,3.80
2023-01-05T10:27:59.661Z,3.35
2023-01-05T10:30:31.704Z,3.22
2023-01-05T10:33:25.992Z,3.45
2023-01-05T10:36:01.891Z,3.13
2023-01-05T10:38:41.099Z,3.17
2023-01-05T10:41:14.857Z,3.10
2023-01-05T10:43:59.685Z,2.92
2023-01-05T10:46:37.735Z,3.28
2023-01-05T10:49:08.474Z,3.25
2023-01-05T10:51:36.914Z,3.80
2023-01-05T10:54:05.757Z,3.45
2023-01-05T10:56:35.548Z,3.38
2023-01-05T10:59:12.795Z,3.47
2023-01-05T11:01:43.985Z,3.70
2023-01-05T11:04:35.074Z,3.50
2023-01-05T11:07:05.652Z,3.42
2023-01-05T11:09:33.966Z,3.42
2023-01-05T11:12:04.809Z,2.80
2023-01-05T11:14:42.930Z,3.20
2023-01-05T11:17:14.747Z,4.10
2023-01-05T11:19:45.396Z,3.20
2023-01-05T11:22:31.636Z,2.33
2023-01-05T11:25:32.300Z,3.33
2023-01-05T11:28:09.872Z,3.05
2023-01-05T11:30:38.493Z,2.83
2023-01-05T11:33:17.323Z,2.95
2023-01-05T11:35:54.185Z,3.00
2023-01-05T11:38:24.613Z,3.10
2023-01-05T11:40:53.770Z,2.58
2023-01-05T11:43:23.535Z,2.65
2023-01-05T11:45:53.099Z,2.95
2023-01-05T11:48:22.553Z,3.10
2023-01-05T11:50:51.727Z,2.38
2023-01-05T11:53:28.619Z,2.42
2023-01-05T11:56:06.813Z,2.75
2023-01-05T11:58:42.783Z,2.40
2023-01-05T12:01:29.846Z,2.60
2023-01-05T12:04:04.234Z,2.30
2023-01-05T12:06:47.192Z,2.00
2023-01-05T12:09:26.444Z,2.30
2023-01-05T12:12:09.844Z,2.90
2023-01-05T12:14:49.761Z,2.35
2023-01-05T12:17:22.139Z,2.40
2023-01-05T12:20:02.117Z,2.97
2023-01-05T12:23:07.249Z,2.70
2023-01-05T12:25:42.808Z,2.65
2023-01-05T12:28:40.563Z,2.22
2023-01-05T12:34:23.799Z,2.63
2023-01-05T12:37:28.939Z,2.40
2023-01-05T12:40:08.151Z,2.95
2023-01-05T12:42:54.843Z,2.92
2023-01-05T12:45:55.628Z,3.10
2023-01-05T12:48:26.919Z,2.90
2023-01-05T12:51:03.186Z,2.60
2023-01-05T12:53:38.864Z,3.20
2023-01-05T12:56:14.074Z,2.80
2023-01-05T12:58:47.853Z,2.53
2023-01-05T13:01:20.731Z,3.08
2023-01-05T13:03:54.104Z,2.33
2023-01-05T13:06:23.699Z,3.00
2023-01-05T13:08:53.885Z,2.83
2023-01-05T13:11:26.505Z,3.00
2023-01-05T13:13:58.688Z,2.83
2023-01-05T13:16:28.550Z,2.65
2023-01-05T13:19:00.880Z,2.53
2023-01-05T13:21:29.353Z,3.75
2023-01-05T13:24:01.982Z,2.88
2023-01-05T13:26:37.589Z,2.33
2023-01-05T13:29:07.703Z,2.93
2023-01-05T13:32:03.983Z,2.30
2023-01-05T13:34:50.135Z,2.72
2023-01-05T13:37:27.607Z,2.83
2023-01-05T13:40:14.871Z,2.22
2023-01-05T13:43:15.469Z,3.20
2023-01-05T13:46:26.883Z,2.92
2023-01-05T13:49:08.439Z,2.50
2023-01-05T13:51:52.720Z,2.40
2023-01-05T13:54:32.983Z,2.88
2023-01-05T13:57:15.502Z,3.00
2023-01-05T13:59:54.990Z,2.75
2023-01-05T14:02:30.865Z,2.70
2023-01-05T14:04:59.373Z,2.88
2023-01-05T14:07:29.153Z,2.95
2023-01-05T14:09:58.157Z,3.15
2023-01-05T14:12:44.536Z,2.85
2023-01-05T14:15:36.419Z,2.70
2023-01-05T14:18:08.079Z,2.50
2023-01-05T14:20:48.738Z,3.47
2023-01-05T14:23:57.744Z,2.65
2023-01-05T14:26:58.615Z,3.17
2023-01-05T14:30:09.503Z,2.50
2023-01-05T14:32:38.271Z,3.10
2023-01-05T14:35:21.212Z,3.05
2023-01-05T14:37:59.592Z,2.90
2023-01-05T14:40:38.675Z,2.38
2023-01-05T14:43:09.305Z,2.80
2023-01-05T14:45:38.483Z,2.70
2023-01-05T14:48:09.246Z,2.45
2023-01-05T14:50:41.036Z,2.80
2023-01-05T14:53:13.592Z,2.72
2023-01-05T14:56:11.799Z,2.20
2023-01-05T15:01:28.412Z,2.03
2023-01-05T15:04:01.919Z,2.35
2023-01-05T15:06:40.188Z,2.42
2023-01-05T15:09:20.643Z,1.90
2023-01-05T15:12:18.496Z,2.58
2023-01-05T15:15:22.756Z,1.95
2023-01-05T15:18:15.693Z,2.00
2023-01-05T15:21:23.643Z,1.80
2023-01-05T15:24:01.352Z,2.30
2023-01-05T15:26:43.272Z,1.60
2023-01-05T15:29:37.056Z,2.15
2023-01-05T15:32:10.719Z,2.13
2023-01-05T15:34:44.305Z,1.80
2023-01-05T15:37:14.141Z,2.10
2023-01-05T15:39:51.556Z,1.80
2023-01-05T15:42:21.142Z,2.17
2023-01-05T15:44:51.783Z,2.20
2023-01-05T15:47:20.390Z,1.40
2023-01-05T15:49:48.839Z,2.15
2023-01-05T15:52:21.888Z,1.90
2023-01-05T15:55:00.789Z,1.58
2023-01-05T15:57:33.927Z,1.70
2023-01-05T16:00:04.117Z,1.73
2023-01-05T16:02:32.590Z,1.48
2023-01-05T16:05:14.633Z,1.92
2023-01-05T16:07:46.524Z,1.92
2023-01-05T16:10:19.739Z,1.15
2023-01-05T16:12:48.888Z,1.80
2023-01-05T16:15:23.632Z,1.75
2023-01-05T16:17:57.754Z,1.90
2023-01-05T16:20:26.566Z,1.30
2023-01-05T16:23:04.512Z,1.58
2023-01-05T16:25:41.304Z,1.67
2023-01-05T16:28:13.154Z,1.70
2023-01-05T16:30:43.260Z,1.83
2023-01-05T16:33:23.516Z,2.13
2023-01-05T16:35:52.918Z,1.90
2023-01-05T16:38:27.809Z,1.40
2023-01-05T16:41:29.171Z,1.30
2023-01-05T16:43:59.342Z,1.10
2023-01-05T16:46:36.556Z,1.35
2023-01-05T16:49:25.172Z,1.42
2023-01-05T16:51:53.531Z,1.50
2023-01-05T16:54:23.593Z,1.30
2023-01-05T16:56:59.164Z,1.30
2023-01-05T16:59:33.630Z,1.35
2023-01-05T17:02:03.334Z,1.38
2023-01-05T17:04:31.757Z,1.20
2023-01-05T17:07:00.885Z,1.40
2023-01-05T17:09:31.853Z,1.50
2023-01-05T17:12:02.175Z,1.10
2023-01-05T17:14:30.492Z,1.38
2023-01-05T17:17:02.758Z,1.50
2023-01-05T17:19:36.280Z,1.02
2023-01-05T17:22:04.878Z,1.50
2023-01-05T17:24:35.690Z,1.05
2023-01-05T17:27:04.187Z,1.25
2023-01-05T17:29:33.344Z,1.40
2023-01-05T17:32:01.725Z,1.52
2023-01-05T17:34:33.140Z,1.20
2023-01-05T17:37:01.562Z,1.30
2023-01-05T17:39:33.058Z,1.00
2023-01-05T17:42:23.771Z,0.80
2023-01-05T17:44:52.597Z,1.08
2023-01-05T17:47:20.965Z,1.60
2023-01-05T17:49:50.700Z,1.17
2023-01-05T17:52:25.171Z,1.33
2023-01-05T17:54:58.492Z,1.08
2023-01-05T17:57:26.810Z,1.08
2023-01-05T17:59:55.108Z,1.17
2023-01-05T18:02:26.580Z,1.13
2023-01-05T18:04:57.156Z,1.45
2023-01-05T18:07:31.767Z,0.98
2023-01-05T18:15:09.029Z,0.68
2023-01-05T18:17:37.501Z,1.33
2023-01-05T18:20:08.461Z,1.25
2023-01-05T18:22:38.777Z,0.93
2023-01-05T18:25:09.827Z,1.10
2023-01-05T18:27:38.193Z,0.90
2023-01-05T18:30:10.175Z,0.63
2023-01-05T18:32:43.584Z,1.00
2023-01-05T18:35:15.927Z,1.15
2023-01-05T18:37:45.945Z,1.00
2023-01-05T18:40:14.419Z,1.33
2023-01-05T18:42:44.452Z,1.00
2023-01-05T18:45:19.359Z,1.40
2023-01-05T18:47:57.517Z,0.75
2023-01-05T18:50:27.265Z,1.45
2023-01-05T18:52:58.768Z,0.85
2023-01-05T18:55:30.259Z,1.38
2023-01-05T18:58:00.748Z,1.30
2023-01-05T19:00:29.764Z,1.17
2023-01-05T19:02:58.664Z,1.02
2023-01-05T19:05:28.507Z,1.05
2023-01-05T19:07:56.855Z,0.98
2023-01-05T19:10:32.705Z,0.80
2023-01-05T19:13:01.015Z,0.80
2023-01-05T19:15:29.392Z,0.68
2023-01-05T19:17:57.755Z,0.88
2023-01-05T19:20:29.794Z,0.95
2023-01-05T19:22:59.616Z,1.10
2023-01-05T19:25:27.959Z,1.50
2023-01-05T19:27:56.318Z,1.08
2023-01-05T19:30:25.761Z,1.02
2023-01-05T19:32:54.217Z,1.75
2023-01-05T19:35:22.683Z,1.20
2023-01-05T19:37:51.041Z,1.00
2023-01-05T19:40:24.390Z,1.15
2023-01-05T19:42:52.802Z,1.13
2023-01-05T19:45:21.175Z,1.35
2023-01-05T19:47:49.569Z,1.17
2023-01-05T19:50:17.936Z,1.10
2023-01-05T19:52:46.339Z,1.25
2023-01-05T19:55:14.738Z,1.20
2023-01-05T19:57:44.475Z,1.23
2023-01-05T20:00:14.695Z,1.15
2023-01-05T20:02:43.156Z,1.10
2023-01-05T20:05:13.891Z,1.30
2023-01-05T20:07:43.523Z,1.10
2023-01-05T20:10:12.015Z,1.30
2023-01-05T20:12:41.492Z,1.20
2023-01-05T20:15:13.222Z,1.40
2023-01-05T20:17:42.243Z,1.38
2023-01-05T20:20:12.138Z,1.20
2023-01-05T20:22:40.731Z,1.30
2023-01-05T20:25:09.915Z,1.05
2023-01-05T20:27:39.561Z,1.67
2023-01-05T20:30:11.441Z,1.38
2023-01-05T20:32:41.163Z,1.17
2023-01-05T20:35:11.883Z,1.58
2023-01-05T20:37:40.559Z,1.40
2023-01-05T20:40:09.720Z,1.67
2023-01-05T20:42:38.533Z,1.40
2023-01-05T20:45:10.223Z,1.10
2023-01-05T20:47:47.447Z,1.08
2023-01-05T20:50:16.315Z,1.20
2023-01-05T20:52:44.655Z,1.15
2023-01-05T20:55:22.157Z,0.90
2023-01-05T20:57:53.301Z,1.15
2023-01-05T21:00:21.714Z,1.00
2023-01-05T21:02:53.165Z,1.05
2023-01-05T21:05:21.496Z,1.02
2023-01-05T21:07:49.857Z,1.00
2023-01-05T21:10:18.301Z,0.98
2023-01-05T21:12:49.492Z,1.33
2023-01-05T21:15:18.124Z,0.95
2023-01-05T21:17:46.646Z,1.10
2023-01-05T21:20:16.503Z,1.23
2023-01-05T21:22:44.874Z,1.42
2023-01-05T21:25:16.490Z,1.10
2023-01-05T21:27:47.983Z,1.08
2023-01-05T21:30:18.740Z,0.77
2023-01-05T21:32:47.148Z,0.93
2023-01-05T21:35:18.271Z,1.10
2023-01-05T21:37:46.843Z,1.27
2023-01-05T21:40:15.310Z,1.10
2023-01-05T21:42:45.262Z,0.90
2023-01-05T21:45:16.455Z,0.70
2023-01-05T21:47:44.968Z,0.80
2023-01-05T21:50:35.864Z,0.90
2023-01-05T21:53:19.536Z,0.98
2023-01-05T21:56:05.997Z,0.80
2023-01-05T21:58:34.513Z,0.80
2023-01-05T22:01:03.148Z,1.05
2023-01-05T22:03:31.591Z,0.80
2023-01-05T22:05:59.906Z,1.00
2023-01-05T22:08:32.714Z,0.68
2023-01-05T22:11:02.812Z,1.15
2023-01-05T22:13:36.370Z,0.88
2023-01-05T22:16:04.762Z,1.10
2023-01-05T22:18:33.215Z,0.90
2023-01-05T22:21:02.185Z,1.30
2023-01-05T22:23:32.269Z,1.33
2023-01-05T22:26:01.433Z,1.00
2023-01-05T22:28:31.512Z,0.90
2023-01-05T22:31:07.039Z,1.30
2023-01-05T22:33:36.585Z,1.00
2023-01-05T22:36:05.543Z,1.10
2023-01-05T22:38:36.769Z,1.15
2023-01-05T22:41:05.663Z,0.88
2023-01-05T22:43:34.895Z,0.70
2023-01-05T22:46:04.025Z,1.02
2023-01-05T22:48:36.556Z,1.10
2023-01-05T22:51:05.119Z,0.93
2023-01-05T22:53:38.043Z,0.70
2023-01-05T22:56:10.224Z,0.88
2023-01-05T22:58:40.941Z,0.80
2023-01-05T23:01:12.843Z,0.90
2023-01-05T23:03:41.457Z,0.95
2023-01-05T23:06:09.809Z,0.70
2023-01-05T23:08:41.211Z,0.73
2023-01-05T23:11:13.293Z,0.60
2023-01-05T23:16:43.492Z,0.80
2023-01-05T23:19:11.915Z,0.93
2023-01-05T23:21:40.269Z,0.80
2023-01-05T23:24:15.210Z,0.70
2023-01-05T23:26:43.524Z,0.68
2023-01-05T23:29:14.939Z,0.95
2023-01-05T23:31:43.233Z,0.73
2023-01-05T23:34:11.673Z,0.82
2023-01-05T23:36:40.063Z,0.60
2023-01-05T23:39:10.931Z,0.70
2023-01-05T23:41:39.275Z,0.47
2023-01-05T23:44:11.840Z,1.08
2023-01-05T23:46:42.671Z,0.65
2023-01-05T23:49:11.037Z,0.75
2023-01-05T23:51:41.759Z,0.88
2023-01-05T23:54:11.520Z,0.60
2023-01-05T23:56:39.887Z,0.80
2023-01-05T23:59:08.798Z,0.63
